Time;durP1;ratioP1;P1;durP2;ratioP2;P2;SDS_P1;SDS_P2;PMS_P1;PMS_P2;Temp;Humidity;BMP_temperature;BMP_pressure;BME280_temperature;BME280_humidity;BME280_pressure;Samples;Min_cycle;Max_cycle;Signal;HPM_P1;HPM_P2
2021/06/18 00:01:22;;;;;;;4.28;2.67;;;24.10;99.90;;;;;;4997059;28;20176;-76
2021/06/18 00:03:49;;;;;;;4.03;2.90;;;24.10;99.90;;;;;;4996488;28;20250;-77
2021/06/18 00:06:15;;;;;;;4.93;2.90;;;24.10;99.90;;;;;;4996684;28;20610;-76
2021/06/18 00:08:41;;;;;;;3.13;2.80;;;24.00;99.90;;;;;;4981005;28;20188;-77
2021/06/18 00:11:06;;;;;;;3.15;2.40;;;24.00;99.90;;;;;;4996758;28;20239;-76
2021/06/18 00:13:32;;;;;;;3.03;2.33;;;24.00;99.90;;;;;;4980180;28;20188;-77
2021/06/18 00:15:57;;;;;;;3.92;3.03;;;24.00;99.90;;;;;;4980564;28;20208;-77
2021/06/18 00:18:23;;;;;;;5.03;2.70;;;24.00;99.90;;;;;;4997563;28;20211;-76
2021/06/18 00:20:48;;;;;;;4.20;2.70;;;24.00;99.90;;;;;;4980149;28;20184;-77
2021/06/18 00:23:14;;;;;;;3.80;3.17;;;23.90;99.90;;;;;;4980124;28;20222;-77
2021/06/18 00:25:40;;;;;;;4.70;3.10;;;23.90;99.90;;;;;;4980453;28;20258;-76
2021/06/18 00:28:05;;;;;;;6.03;3.40;;;24.00;99.90;;;;;;4996895;28;20208;-76
2021/06/18 00:30:31;;;;;;;4.43;3.17;;;24.00;99.90;;;;;;4980351;28;20184;-76
2021/06/18 00:32:56;;;;;;;4.33;2.90;;;23.90;99.90;;;;;;4996990;28;20194;-76
2021/06/18 00:35:22;;;;;;;7.43;3.20;;;23.80;99.90;;;;;;4980284;28;20197;-77
2021/06/18 00:37:47;;;;;;;3.20;2.90;;;23.80;99.90;;;;;;4996745;28;20249;-76
2021/06/18 00:40:13;;;;;;;5.35;3.28;;;23.80;99.90;;;;;;4980612;28;20191;-76
2021/06/18 00:42:39;;;;;;;3.90;3.50;;;23.80;99.90;;;;;;4995041;28;20172;-76
2021/06/18 00:45:05;;;;;;;4.00;3.30;;;23.80;99.90;;;;;;4996828;28;20668;-77
2021/06/18 00:47:30;;;;;;;5.83;3.33;;;23.80;99.90;;;;;;4996650;28;20173;-76
2021/06/18 00:49:56;;;;;;;3.87;3.03;;;23.80;99.90;;;;;;4996566;28;20691;-77
2021/06/18 00:52:22;;;;;;;5.40;3.17;;;23.80;99.90;;;;;;4980907;28;20177;-77
2021/06/18 00:54:48;;;;;;;4.23;3.40;;;23.80;99.90;;;;;;4996283;28;20255;-77
2021/06/18 00:57:14;;;;;;;5.50;3.63;;;23.70;99.90;;;;;;4995495;28;20786;-76
2021/06/18 00:59:39;;;;;;;5.30;3.47;;;23.70;99.90;;;;;;4996313;28;20695;-77
2021/06/18 01:02:05;;;;;;;4.53;3.37;;;23.60;99.90;;;;;;4979840;28;20263;-77
2021/06/18 01:04:30;;;;;;;5.30;3.70;;;23.70;99.90;;;;;;4979891;28;20318;-77
2021/06/18 01:07:00;;;;;;;3.80;3.17;;;23.60;99.90;;;;;;4978711;28;20729;-77
2021/06/18 01:09:27;;;;;;;4.23;3.40;;;23.60;99.90;;;;;;4980554;28;20180;-77
2021/06/18 01:12:05;;;;;;;7.27;4.03;;;23.50;99.90;;;;;;4979158;28;20217;-77
2021/06/18 01:14:56;;;;;;;4.23;3.60;;;23.50;99.90;;;;;;4995811;28;20190;-77
2021/06/18 01:17:44;;;;;;;6.57;3.80;;;23.40;99.90;;;;;;4995414;28;20184;-77
2021/06/18 01:20:46;;;;;;;4.20;3.63;;;23.40;99.90;;;;;;4997018;28;20282;-77
2021/06/18 01:24:10;;;;;;;4.43;3.80;;;23.30;99.90;;;;;;4981497;28;20203;-77
2021/06/18 01:26:58;;;;;;;6.73;4.27;;;23.20;99.90;;;;;;4979846;28;20219;-76
2021/06/18 01:29:24;;;;;;;6.90;4.07;;;23.20;99.90;;;;;;4997295;28;20180;-76
2021/06/18 01:31:50;;;;;;;5.07;4.57;;;23.10;99.90;;;;;;4996651;28;20235;-76
2021/06/18 01:34:21;;;;;;;4.93;4.43;;;23.20;99.90;;;;;;4979673;28;20184;-76
2021/06/18 01:36:48;;;;;;;6.30;4.43;;;23.10;99.90;;;;;;4995893;28;20279;-76
2021/06/18 01:39:15;;;;;;;5.60;4.40;;;23.10;99.90;;;;;;4979529;28;20266;-76
2021/06/18 01:41:40;;;;;;;6.03;4.73;;;23.10;99.90;;;;;;4980204;28;20179;-76
2021/06/18 01:44:06;;;;;;;4.93;4.30;;;23.10;99.90;;;;;;4996162;28;20173;-77
2021/06/18 01:46:33;;;;;;;6.83;4.87;;;23.00;99.90;;;;;;4995985;28;20219;-76
2021/06/18 01:49:01;;;;;;;7.07;4.50;;;23.00;99.90;;;;;;4996699;28;20311;-77
2021/06/18 01:51:29;;;;;;;6.30;5.00;;;23.00;99.90;;;;;;4979798;28;20176;-76
2021/06/18 01:53:57;;;;;;;5.90;4.70;;;22.90;99.90;;;;;;4995143;28;20271;-76
2021/06/18 01:56:22;;;;;;;7.10;5.30;;;22.90;99.90;;;;;;4979763;28;20323;-76
2021/06/18 01:58:49;;;;;;;5.40;4.50;;;22.90;99.90;;;;;;4995669;28;20220;-76
2021/06/18 02:01:15;;;;;;;6.07;4.90;;;22.80;99.90;;;;;;4995844;28;20169;-76
2021/06/18 02:03:42;;;;;;;7.17;4.63;;;22.70;99.90;;;;;;4979334;28;20195;-77
2021/06/18 02:06:08;;;;;;;7.13;4.80;;;22.70;99.90;;;;;;4978756;28;20770;-76
2021/06/18 02:08:33;;;;;;;6.80;4.87;;;22.60;99.90;;;;;;4979364;28;20226;-76
2021/06/18 02:10:59;;;;;;;5.63;4.50;;;22.60;99.90;;;;;;4979233;28;20239;-76
2021/06/18 02:13:27;;;;;;;5.50;4.07;;;22.50;99.90;;;;;;4995290;28;20199;-76
2021/06/18 02:15:53;;;;;;;8.30;4.57;;;22.50;99.90;;;;;;4995566;28;20567;-76
2021/06/18 02:18:20;;;;;;;4.70;3.87;;;22.40;99.90;;;;;;4994517;28;20188;-77
2021/06/18 02:20:46;;;;;;;6.93;4.43;;;22.40;99.90;;;;;;4995364;28;20168;-77
2021/06/18 02:23:12;;;;;;;6.40;5.00;;;22.40;99.90;;;;;;4978846;28;20184;-76
2021/06/18 02:25:38;;;;;;;4.97;4.47;;;22.40;99.90;;;;;;4979189;28;20196;-76
2021/06/18 02:28:04;;;;;;;5.83;4.30;;;22.40;99.90;;;;;;4979040;28;20742;-76
2021/06/18 02:30:29;;;;;;;5.40;4.03;;;22.40;99.90;;;;;;4995116;28;20182;-76
2021/06/18 02:32:56;;;;;;;6.13;4.00;;;22.40;99.90;;;;;;4994691;28;20172;-77
2021/06/18 02:35:23;;;;;;;7.77;4.33;;;22.30;99.90;;;;;;4978948;28;20204;-77
2021/06/18 02:37:48;;;;;;;6.23;4.70;;;22.30;99.90;;;;;;4978907;28;20270;-77
2021/06/18 02:40:14;;;;;;;4.87;4.37;;;22.20;99.90;;;;;;4995223;28;20631;-76
2021/06/18 02:42:39;;;;;;;4.80;4.30;;;22.20;99.90;;;;;;4977787;28;20607;-76
2021/06/18 02:45:05;;;;;;;4.90;4.07;;;22.10;99.90;;;;;;4994905;28;20275;-76
2021/06/18 02:47:39;;;;;;;6.80;4.93;;;22.10;99.90;;;;;;4995222;28;20184;-76
2021/06/18 02:50:17;;;;;;;10.87;5.60;;;22.10;99.90;;;;;;4996026;28;20164;-76
2021/06/18 02:52:55;;;;;;;8.93;4.87;;;22.10;99.90;;;;;;4981539;28;20176;-77
2021/06/18 02:55:24;;;;;;;6.37;4.53;;;22.20;99.90;;;;;;4997149;28;20184;-77
2021/06/18 02:57:59;;;;;;;5.87;4.70;;;22.10;99.90;;;;;;4997777;28;20223;-76
2021/06/18 03:00:24;;;;;;;5.20;4.30;;;22.10;99.90;;;;;;4996838;28;20194;-76
2021/06/18 03:02:57;;;;;;;5.13;4.63;;;22.00;99.90;;;;;;4997145;28;20180;-76
2021/06/18 03:05:24;;;;;;;8.10;4.53;;;22.00;99.90;;;;;;4980602;28;20212;-77
2021/06/18 03:08:10;;;;;;;7.07;5.00;;;22.00;99.90;;;;;;4979950;28;20176;-77
2021/06/18 03:10:38;;;;;;;5.93;5.33;;;22.00;99.90;;;;;;4996967;28;20189;-76
2021/06/18 03:13:08;;;;;;;6.37;5.10;;;21.90;99.90;;;;;;4997241;28;20188;-77
2021/06/18 03:15:35;;;;;;;5.73;4.13;;;21.90;99.90;;;;;;4996960;28;20196;-77
2021/06/18 03:18:00;;;;;;;5.70;4.70;;;21.90;99.90;;;;;;4980555;28;20199;-77
2021/06/18 03:20:26;;;;;;;5.30;4.80;;;21.90;99.90;;;;;;4996591;28;20175;-76
2021/06/18 03:22:57;;;;;;;5.20;4.70;;;21.80;99.90;;;;;;4996607;28;20206;-76
2021/06/18 03:25:24;;;;;;;7.40;4.67;;;21.80;99.90;;;;;;4981181;28;20216;-76
2021/06/18 03:27:49;;;;;;;6.07;4.80;;;21.80;99.90;;;;;;4980804;28;20187;-77
2021/06/18 03:30:15;;;;;;;7.23;4.90;;;21.80;99.90;;;;;;4996647;28;20555;-77
2021/06/18 03:32:41;;;;;;;5.23;4.60;;;21.80;99.90;;;;;;4996782;28;20231;-77
2021/06/18 03:35:07;;;;;;;5.60;4.70;;;21.80;99.90;;;;;;4995707;28;20196;-77
2021/06/18 03:37:33;;;;;;;7.30;4.93;;;21.70;99.90;;;;;;4995164;28;20180;-77
2021/06/18 03:39:58;;;;;;;6.97;5.00;;;21.80;99.90;;;;;;4996258;28;20236;-76
2021/06/18 03:42:24;;;;;;;9.23;5.73;;;21.90;99.90;;;;;;4996357;28;20189;-76
2021/06/18 03:44:50;;;;;;;6.73;5.80;;;21.90;99.90;;;;;;4981343;28;20187;-76
2021/06/18 03:47:15;;;;;;;6.43;5.47;;;21.90;99.90;;;;;;4996708;28;20180;-77
2021/06/18 03:49:43;;;;;;;5.67;4.80;;;21.90;99.90;;;;;;4980003;28;20686;-77
2021/06/18 03:52:08;;;;;;;6.67;5.10;;;21.80;99.90;;;;;;4996777;28;20177;-76
2021/06/18 03:54:34;;;;;;;6.70;5.17;;;21.80;99.90;;;;;;4996193;28;20190;-77
2021/06/18 03:57:00;;;;;;;8.47;5.27;;;21.80;99.90;;;;;;4979932;28;20274;-77
2021/06/18 03:59:25;;;;;;;7.30;4.93;;;21.80;99.90;;;;;;4995573;28;20212;-77
2021/06/18 04:01:52;;;;;;;6.90;5.53;;;21.80;99.90;;;;;;4996610;28;20297;-76
2021/06/18 04:04:21;;;;;;;7.60;4.90;;;21.80;99.90;;;;;;4979971;28;20177;-76
2021/06/18 04:06:47;;;;;;;5.67;5.00;;;21.80;99.90;;;;;;4976727;28;20205;-77
2021/06/18 04:09:13;;;;;;;8.07;5.17;;;21.90;99.90;;;;;;4992499;28;20199;-77
2021/06/18 04:11:38;;;;;;;6.53;5.20;;;21.90;99.90;;;;;;4993286;28;20188;-76
2021/06/18 04:14:05;;;;;;;6.13;4.80;;;21.90;99.90;;;;;;4992599;28;20205;-76
2021/06/18 04:16:31;;;;;;;7.23;5.40;;;21.90;99.90;;;;;;4992682;28;20232;-77
2021/06/18 04:18:56;;;;;;;7.20;5.10;;;22.00;99.90;;;;;;4995666;28;20279;-77
2021/06/18 04:21:22;;;;;;;6.53;5.37;;;22.00;99.90;;;;;;4996296;28;20189;-77
2021/06/18 04:23:48;;;;;;;7.33;5.10;;;22.10;99.90;;;;;;4995573;28;20732;-77
2021/06/18 04:26:14;;;;;;;9.07;5.27;;;22.20;99.90;;;;;;4995885;28;20200;-77
2021/06/18 04:28:40;;;;;;;6.23;5.30;;;22.30;99.90;;;;;;5001969;28;20187;-74
2021/06/18 04:31:05;;;;;;;6.17;5.20;;;22.40;99.90;;;;;;4977478;28;20180;-73
2021/06/18 04:33:32;;;;;;;5.43;4.47;;;22.50;99.90;;;;;;4977527;28;20659;-74
2021/06/18 04:35:57;;;;;;;7.97;4.70;;;22.50;99.90;;;;;;4993648;28;20626;-73
2021/06/18 04:38:23;;;;;;;6.40;4.77;;;22.50;99.90;;;;;;4993773;28;20230;-73
2021/06/18 04:40:49;;;;;;;9.37;5.70;;;22.60;99.90;;;;;;4977776;28;20230;-73
2021/06/18 04:43:15;;;;;;;5.87;5.27;;;22.60;99.90;;;;;;4977497;28;20223;-74
2021/06/18 04:45:41;;;;;;;6.87;5.30;;;22.60;99.90;;;;;;4994001;28;20671;-73
2021/06/18 04:48:07;;;;;;;8.87;4.80;;;22.60;99.90;;;;;;4994040;28;20207;-73
2021/06/18 04:50:32;;;;;;;7.57;5.37;;;22.70;99.90;;;;;;4993967;28;20195;-72
2021/06/18 04:52:59;;;;;;;5.83;4.90;;;22.60;99.90;;;;;;4993794;28;20189;-72
2021/06/18 04:55:24;;;;;;;6.50;5.23;;;22.70;99.90;;;;;;4993447;28;20408;-72
2021/06/18 04:57:50;;;;;;;6.83;5.30;;;22.80;99.90;;;;;;4993602;28;20188;-72
2021/06/18 05:00:16;;;;;;;6.13;5.07;;;22.80;99.90;;;;;;4993579;28;20176;-73
2021/06/18 05:02:42;;;;;;;8.80;4.90;;;22.90;99.90;;;;;;4993590;28;20173;-72
2021/06/18 05:05:08;;;;;;;6.00;5.20;;;22.90;99.90;;;;;;4993021;28;20631;-74
2021/06/18 05:07:34;;;;;;;6.20;4.77;;;23.00;99.90;;;;;;4993404;28;20555;-72
2021/06/18 05:09:59;;;;;;;6.80;4.07;;;23.00;99.90;;;;;;4994082;28;20176;-72
2021/06/18 05:12:25;;;;;;;6.97;5.40;;;23.10;99.90;;;;;;4984394;28;20181;-72
2021/06/18 05:14:50;;;;;;;5.70;4.80;;;23.10;99.90;;;;;;4984355;28;20177;-73
2021/06/18 05:17:16;;;;;;;5.63;4.80;;;23.20;99.90;;;;;;4994927;28;20185;-73
2021/06/18 05:19:42;;;;;;;7.80;5.27;;;23.30;99.90;;;;;;4973353;28;20299;-72
2021/06/18 05:22:07;;;;;;;8.03;5.23;;;23.40;99.90;;;;;;4989497;28;20212;-74
2021/06/18 05:24:33;;;;;;;7.33;4.90;;;23.50;99.90;;;;;;4996157;28;20282;-74
2021/06/18 05:26:58;;;;;;;5.53;4.80;;;23.60;99.90;;;;;;4984430;28;20211;-74
2021/06/18 05:29:24;;;;;;;6.43;4.70;;;23.70;99.90;;;;;;4983380;28;20644;-74
2021/06/18 05:31:50;;;;;;;6.40;5.40;;;23.70;99.90;;;;;;4985496;28;20560;-73
2021/06/18 05:34:15;;;;;;;7.80;5.30;;;23.90;99.90;;;;;;5000391;28;20668;-73
2021/06/18 05:36:44;;;;;;;7.77;4.77;;;24.00;99.90;;;;;;4992250;28;20204;-73
2021/06/18 05:39:13;;;;;;;6.57;4.70;;;24.00;99.90;;;;;;4994082;28;20239;-74
2021/06/18 05:41:39;;;;;;;6.72;4.38;;;24.00;99.90;;;;;;4992849;28;20550;-74
2021/06/18 05:44:05;;;;;;;4.82;4.32;;;24.40;99.90;;;;;;4991933;28;20177;-75
2021/06/18 05:46:31;;;;;;;7.43;3.78;;;24.80;99.90;;;;;;5005837;28;20204;-73
2021/06/18 05:48:56;;;;;;;3.88;3.47;;;25.10;99.90;;;;;;4976024;28;20184;-73
2021/06/18 05:51:22;;;;;;;6.18;4.00;;;25.50;99.90;;;;;;4992730;28;20179;-73
2021/06/18 05:53:47;;;;;;;6.25;4.70;;;25.90;99.90;;;;;;4992370;28;20180;-73
2021/06/18 05:56:13;;;;;;;5.25;3.70;;;26.10;99.90;;;;;;4992533;28;20196;-73
2021/06/18 05:58:38;;;;;;;4.05;3.60;;;26.30;99.90;;;;;;4993356;28;20232;-73
2021/06/18 06:01:04;;;;;;;3.88;3.47;;;26.50;99.90;;;;;;4976278;28;20176;-73
2021/06/18 06:03:30;;;;;;;5.60;3.50;;;26.70;99.90;;;;;;4993313;28;20628;-73
2021/06/18 06:05:55;;;;;;;3.42;3.10;;;27.10;99.90;;;;;;4993456;28;20262;-73
2021/06/18 06:08:21;;;;;;;6.63;3.30;;;27.20;99.90;;;;;;4993562;28;20682;-73
2021/06/18 06:10:48;;;;;;;4.20;3.25;;;27.30;99.90;;;;;;4992243;28;20184;-73
2021/06/18 06:13:14;;;;;;;4.30;3.33;;;27.10;99.90;;;;;;4992293;28;20548;-73
2021/06/18 06:15:39;;;;;;;5.18;3.35;;;27.10;99.90;;;;;;4992322;28;20308;-73
2021/06/18 06:18:05;;;;;;;6.68;3.70;;;27.30;99.90;;;;;;4993114;28;20219;-73
2021/06/18 06:20:31;;;;;;;7.68;3.47;;;27.70;99.90;;;;;;4975760;28;20177;-73
2021/06/18 06:22:56;;;;;;;4.07;3.67;;;28.10;99.90;;;;;;4993181;28;20200;-73
2021/06/18 06:25:22;;;;;;;5.65;3.40;;;28.60;99.90;;;;;;4992016;28;20197;-73
2021/06/18 06:27:47;;;;;;;4.38;3.42;;;28.80;99.90;;;;;;4992106;28;20648;-73
2021/06/18 06:30:13;;;;;;;4.85;3.20;;;28.80;99.90;;;;;;4975636;28;20235;-73
2021/06/18 06:32:40;;;;;;;4.35;3.35;;;29.00;99.90;;;;;;4975616;28;20196;-73
2021/06/18 06:35:05;;;;;;;4.07;3.15;;;29.20;99.90;;;;;;4992919;28;20187;-74
2021/06/18 06:37:31;;;;;;;3.30;2.63;;;29.20;99.90;;;;;;4975628;28;20663;-74
2021/06/18 06:39:57;;;;;;;4.60;3.20;;;28.90;99.90;;;;;;4992857;28;20212;-73
2021/06/18 06:42:22;;;;;;;3.70;2.80;;;28.50;99.90;;;;;;4991776;28;20175;-74
2021/06/18 06:44:48;;;;;;;6.45;2.90;;;28.00;99.90;;;;;;4992877;28;20172;-74
2021/06/18 06:47:13;;;;;;;5.32;3.63;;;28.00;99.90;;;;;;4988594;28;20204;-74
2021/06/18 06:49:40;;;;;;;7.05;3.78;;;27.90;99.90;;;;;;4991737;28;20701;-76
2021/06/18 06:52:06;;;;;;;6.22;3.22;;;27.90;99.90;;;;;;4989024;28;20188;-76
2021/06/18 06:54:31;;;;;;;4.40;3.58;;;27.80;99.90;;;;;;4972374;28;20184;-75
2021/06/18 06:56:57;;;;;;;5.05;3.40;;;27.70;99.90;;;;;;4974124;28;20212;-77
2021/06/18 06:59:22;;;;;;;5.00;3.40;;;27.70;99.90;;;;;;4989094;28;20211;-77
2021/06/18 07:01:48;;;;;;;3.83;2.88;;;27.80;99.90;;;;;;4989045;28;20195;-76
2021/06/18 07:04:14;;;;;;;3.75;2.90;;;27.80;99.90;;;;;;4988820;28;20183;-76
2021/06/18 07:06:39;;;;;;;3.53;2.75;;;28.10;99.90;;;;;;4988398;28;20215;-76
2021/06/18 07:09:06;;;;;;;4.05;2.90;;;28.30;99.90;;;;;;4972426;28;20181;-74
2021/06/18 07:11:31;;;;;;;3.15;2.83;;;28.40;99.90;;;;;;4988613;28;20177;-77
2021/06/18 07:13:57;;;;;;;3.55;2.75;;;28.60;99.90;;;;;;4989514;28;20177;-77
2021/06/18 07:16:24;;;;;;;3.38;2.50;;;29.10;99.90;;;;;;5006894;28;20212;-74
2021/06/18 07:18:49;;;;;;;4.25;2.80;;;29.30;99.90;;;;;;4992053;28;20676;-74
2021/06/18 07:21:15;;;;;;;4.35;2.63;;;29.40;99.90;;;;;;4994926;28;20199;-77
2021/06/18 07:23:40;;;;;;;5.40;2.90;;;29.90;99.90;;;;;;4978127;28;20200;-77
2021/06/18 07:26:06;;;;;;;3.33;2.70;;;30.30;99.90;;;;;;4978050;28;20336;-77
2021/06/18 07:28:32;;;;;;;5.20;3.35;;;30.70;99.90;;;;;;4977699;28;20180;-77
2021/06/18 07:30:57;;;;;;;4.00;3.05;;;30.80;99.90;;;;;;4977291;28;20251;-77
2021/06/18 07:33:23;;;;;;;3.35;2.72;;;30.80;99.90;;;;;;4993737;28;20173;-77
2021/06/18 07:35:49;;;;;;;5.63;3.20;;;30.50;99.90;;;;;;4978121;28;20698;-77
2021/06/18 07:38:14;;;;;;;4.13;2.67;;;30.10;99.90;;;;;;4994059;28;20212;-77
2021/06/18 07:40:40;;;;;;;5.68;2.92;;;29.80;99.90;;;;;;4977840;28;20219;-77
2021/06/18 07:43:05;;;;;;;5.22;4.13;;;29.60;99.90;;;;;;4994754;28;20172;-77
2021/06/18 07:45:31;;;;;;;3.90;3.50;;;29.60;99.90;;;;;;4995214;28;20188;-77
2021/06/18 07:47:57;;;;;;;4.60;3.03;;;29.50;99.90;;;;;;4978873;28;20658;-77
2021/06/18 07:50:22;;;;;;;3.80;2.90;;;29.60;99.90;;;;;;4978933;28;20186;-77
2021/06/18 07:52:48;;;;;;;3.13;2.80;;;29.60;99.90;;;;;;4996233;28;20187;-77
2021/06/18 07:55:19;;;;;;;4.55;3.20;;;29.40;99.90;;;;;;4982725;28;20204;-77
2021/06/18 07:57:45;;;;;;;3.97;3.10;;;29.30;99.90;;;;;;4983310;28;20179;-77
2021/06/18 08:00:11;;;;;;;4.88;3.47;;;29.40;99.90;;;;;;4982533;28;20180;-77
2021/06/18 08:02:37;;;;;;;3.97;3.00;;;29.20;99.90;;;;;;4983113;28;20528;-77
2021/06/18 08:05:03;;;;;;;4.43;3.20;;;29.10;99.90;;;;;;4999143;28;20196;-77
2021/06/18 08:07:28;;;;;;;2.97;2.67;;;29.20;99.90;;;;;;4981959;28;20192;-77
2021/06/18 08:09:54;;;;;;;4.05;2.78;;;29.30;99.90;;;;;;4981745;28;20195;-77
2021/06/18 08:12:21;;;;;;;6.65;3.08;;;29.40;99.90;;;;;;4982584;28;20184;-77
2021/06/18 08:14:46;;;;;;;7.35;3.17;;;29.20;99.90;;;;;;4982112;28;20551;-77
2021/06/18 08:17:12;;;;;;;4.13;3.10;;;29.40;99.90;;;;;;4998357;28;20173;-77
2021/06/18 08:19:38;;;;;;;4.85;2.92;;;29.40;99.90;;;;;;4998161;28;20263;-77
2021/06/18 08:22:05;;;;;;;4.55;3.20;;;29.60;99.90;;;;;;4981918;28;20176;-77
2021/06/18 08:24:31;;;;;;;3.22;2.80;;;29.80;99.90;;;;;;4981527;28;20180;-77
2021/06/18 08:26:57;;;;;;;4.78;3.03;;;30.00;99.90;;;;;;4981331;28;20197;-77
2021/06/18 08:29:23;;;;;;;3.47;3.00;;;30.20;99.90;;;;;;4981806;28;20655;-77
2021/06/18 08:31:48;;;;;;;5.20;3.00;;;30.30;99.90;;;;;;4981805;28;20311;-77
2021/06/18 08:34:14;;;;;;;4.55;3.00;;;30.30;99.90;;;;;;4997134;28;20190;-77
2021/06/18 08:36:39;;;;;;;4.47;3.33;;;30.10;99.90;;;;;;4997468;28;20672;-77
2021/06/18 08:39:05;;;;;;;4.85;3.25;;;30.20;99.90;;;;;;4981522;28;20690;-77
2021/06/18 08:41:31;;;;;;;3.83;3.42;;;30.30;99.90;;;;;;5014585;28;20200;-77
2021/06/18 08:43:57;;;;;;;4.20;3.22;;;30.30;99.90;;;;;;4996869;28;20196;-77
2021/06/18 08:46:22;;;;;;;5.10;3.03;;;30.10;99.90;;;;;;4981435;28;20201;-77
2021/06/18 08:48:48;;;;;;;4.65;3.40;;;30.10;99.90;;;;;;4980884;28;20196;-77
2021/06/18 08:51:13;;;;;;;6.07;3.30;;;30.20;99.90;;;;;;4997314;28;20173;-77
2021/06/18 08:53:39;;;;;;;4.78;3.80;;;30.10;99.90;;;;;;4980653;28;20191;-77
2021/06/18 08:56:06;;;;;;;5.32;3.70;;;30.00;99.90;;;;;;4981136;28;20198;-77
2021/06/18 08:58:31;;;;;;;6.93;3.20;;;29.90;99.90;;;;;;4980905;28;20208;-77
2021/06/18 09:00:57;;;;;;;4.00;3.50;;;29.80;99.90;;;;;;4997126;28;20252;-77
2021/06/18 09:03:43;;;;;;;4.45;3.22;;;30.00;99.90;;;;;;4979895;28;20636;-77
2021/06/18 09:06:18;;;;;;;6.88;4.38;;;30.20;99.90;;;;;;4980142;28;20215;-77
2021/06/18 09:08:44;;;;;;;4.35;3.70;;;30.00;99.90;;;;;;4998298;28;20175;-77
2021/06/18 09:11:09;;;;;;;3.83;3.35;;;29.90;99.90;;;;;;4980865;28;20184;-77
2021/06/18 09:13:35;;;;;;;4.35;3.92;;;30.10;99.90;;;;;;5012549;28;20180;-77
2021/06/18 09:16:01;;;;;;;5.25;4.22;;;30.20;99.90;;;;;;4979890;28;20671;-77
2021/06/18 09:18:30;;;;;;;4.78;3.70;;;30.30;99.90;;;;;;4996877;28;20203;-77
2021/06/18 09:21:18;;;;;;;3.72;3.30;;;30.40;99.90;;;;;;5012921;28;20239;-77
2021/06/18 09:23:48;;;;;;;5.57;3.80;;;30.40;99.90;;;;;;5012292;28;20173;-77
2021/06/18 09:26:34;;;;;;;7.63;4.25;;;30.70;99.90;;;;;;4979942;28;20466;-77
2021/06/18 09:29:08;;;;;;;5.10;3.90;;;30.80;99.90;;;;;;4996713;28;20651;-77
2021/06/18 09:31:54;;;;;;;5.85;4.07;;;30.50;99.90;;;;;;4996308;28;20176;-77
2021/06/18 09:35:17;;;;;;;5.30;3.92;;;30.20;99.90;;;;;;4997863;28;20195;-77
2021/06/18 09:37:35;;;;;;;4.80;3.95;;;30.10;99.90;;;;;;4993505;28;20192;-77
2021/06/18 09:40:03;;;;;;;5.07;3.97;;;30.10;99.90;;;;;;4995864;28;20215;-77
2021/06/18 09:42:30;;;;;;;5.47;4.18;;;30.20;99.90;;;;;;5018063;28;20191;-78
2021/06/18 09:45:08;;;;;;;4.60;4.10;;;30.20;99.90;;;;;;4994788;28;20705;-78
2021/06/18 09:47:35;;;;;;;4.90;4.00;;;30.20;99.90;;;;;;4995428;28;20208;-78
2021/06/18 09:50:01;;;;;;;6.68;4.60;;;30.30;99.90;;;;;;4979439;28;20180;-78
2021/06/18 09:52:27;;;;;;;5.20;4.22;;;30.40;99.90;;;;;;4979501;28;20191;-78
2021/06/18 09:54:53;;;;;;;8.15;3.88;;;30.40;99.90;;;;;;4978442;28;20263;-75
2021/06/18 09:57:39;;;;;;;6.10;4.43;;;30.40;99.90;;;;;;4993146;28;20184;-74
2021/06/18 10:00:09;;;;;;;5.72;3.97;;;30.10;99.90;;;;;;4992753;28;20220;-76
2021/06/18 10:02:36;;;;;;;5.78;3.65;;;30.00;99.90;;;;;;5009395;28;20275;-76
2021/06/18 10:05:09;;;;;;;3.80;3.17;;;30.10;99.90;;;;;;4992935;28;20196;-76
2021/06/18 10:07:35;;;;;;;4.53;3.40;;;30.40;99.90;;;;;;4977402;28;20184;-76
2021/06/18 10:10:02;;;;;;;7.95;3.72;;;30.50;99.90;;;;;;4977237;28;20528;-77
2021/06/18 10:12:29;;;;;;;5.10;3.72;;;30.50;99.90;;;;;;4993137;28;20581;-78
2021/06/18 10:14:55;;;;;;;7.65;3.83;;;30.40;99.90;;;;;;4991189;28;20301;-78
2021/06/18 10:17:21;;;;;;;7.65;3.28;;;30.40;99.90;;;;;;4992650;28;20644;-77
2021/06/18 10:19:46;;;;;;;4.90;3.08;;;30.40;99.90;;;;;;4992920;28;20226;-78
2021/06/18 10:22:14;;;;;;;5.38;3.60;;;30.40;99.90;;;;;;4990583;28;20183;-78
2021/06/18 10:24:47;;;;;;;5.50;3.47;;;30.40;99.90;;;;;;4994626;28;20194;-76
2021/06/18 10:27:18;;;;;;;3.58;3.20;;;30.40;99.90;;;;;;4991330;28;20176;-79
2021/06/18 10:29:43;;;;;;;3.45;3.03;;;30.50;99.90;;;;;;4993723;28;20184;-78
2021/06/18 10:32:27;;;;;;;4.18;3.58;;;30.70;99.90;;;;;;5004591;28;20184;-79
2021/06/18 10:34:53;;;;;;;5.95;3.30;;;31.00;99.90;;;;;;4994555;28;20180;-79
2021/06/18 10:37:23;;;;;;;5.10;3.50;;;31.00;99.90;;;;;;4993136;28;20686;-78
2021/06/18 10:39:57;;;;;;;3.88;2.97;;;31.10;99.90;;;;;;4993270;28;20572;-78
2021/06/18 10:42:23;;;;;;;3.13;2.88;;;31.10;99.90;;;;;;4991856;28;20242;-78
2021/06/18 10:44:49;;;;;;;4.95;3.03;;;31.10;99.90;;;;;;4991232;28;20703;-78
2021/06/18 10:47:24;;;;;;;4.32;2.78;;;31.10;99.90;;;;;;4975656;28;20678;-78
2021/06/18 10:49:54;;;;;;;3.65;2.90;;;31.20;99.90;;;;;;4991717;28;20663;-80
2021/06/18 10:52:23;;;;;;;4.55;3.33;;;31.20;99.90;;;;;;4975844;28;20272;-79
2021/06/18 10:54:58;;;;;;;3.92;2.92;;;31.20;99.90;;;;;;4976224;28;20267;-79
2021/06/18 10:57:27;;;;;;;5.70;3.15;;;31.20;99.90;;;;;;4978135;28;20605;-80
2021/06/18 10:59:57;;;;;;;3.50;3.20;;;31.20;99.90;;;;;;4979799;28;20207;-80
2021/06/18 11:02:23;;;;;;;4.43;2.90;;;31.40;99.90;;;;;;4983028;28;20195;-81
2021/06/18 11:04:55;;;;;;;4.20;3.80;;;31.30;99.90;;;;;;4996498;28;20598;-79
2021/06/18 11:07:24;;;;;;;4.25;3.65;;;31.10;99.90;;;;;;4997075;28;20180;-79
2021/06/18 11:10:00;;;;;;;4.55;3.40;;;31.00;99.90;;;;;;4995904;28;20177;-79
2021/06/18 11:12:26;;;;;;;4.80;3.13;;;30.80;99.90;;;;;;4979899;28;20239;-80
2021/06/18 11:14:52;;;;;;;4.07;3.30;;;30.70;99.90;;;;;;4996220;28;20176;-78
2021/06/18 11:17:37;;;;;;;6.13;3.80;;;30.70;99.90;;;;;;4992296;28;20190;-76
2021/06/18 11:20:10;;;;;;;4.93;3.30;;;30.90;99.90;;;;;;4992659;28;20218;-77
2021/06/18 11:25:42;;;;;;;4.13;3.00;;;31.00;99.90;;;;;;4993041;28;20200;-77
2021/06/18 11:28:20;;;;;;;5.82;3.35;;;31.00;99.90;;;;;;4994759;28;20267;-77
2021/06/18 11:30:50;;;;;;;5.47;3.85;;;30.80;99.90;;;;;;4998494;28;20180;-78
2021/06/18 11:33:42;;;;;;;6.70;3.13;;;30.90;99.90;;;;;;4997477;28;20200;-78
2021/06/18 11:36:23;;;;;;;5.05;3.28;;;30.80;99.90;;;;;;4998469;28;20879;-80
2021/06/18 11:38:50;;;;;;;4.35;3.40;;;30.70;99.90;;;;;;4996501;28;20204;-77
2021/06/18 11:41:22;;;;;;;4.32;3.05;;;30.50;99.90;;;;;;4999804;28;20172;-77
2021/06/18 11:43:53;;;;;;;4.68;3.55;;;30.40;99.90;;;;;;4997669;28;20207;-76
2021/06/18 11:46:19;;;;;;;7.38;3.25;;;30.40;99.90;;;;;;5009675;28;20200;-76
2021/06/18 11:48:45;;;;;;;4.32;3.92;;;30.30;99.90;;;;;;4995429;28;20679;-76
2021/06/18 11:51:30;;;;;;;5.93;3.67;;;30.30;99.90;;;;;;4998232;28;20192;-76
2021/06/18 11:53:56;;;;;;;4.05;3.05;;;30.30;99.90;;;;;;4997185;28;20192;-77
2021/06/18 11:56:26;;;;;;;4.32;2.97;;;30.40;99.90;;;;;;5011113;28;20715;-77
2021/06/18 11:58:52;;;;;;;5.07;3.10;;;30.40;99.90;;;;;;5011000;28;20199;-77
2021/06/18 12:01:19;;;;;;;5.55;3.28;;;30.40;99.90;;;;;;5011318;28;20183;-76
2021/06/18 12:03:49;;;;;;;3.97;3.03;;;30.40;99.90;;;;;;4994216;28;20188;-77
2021/06/18 12:06:22;;;;;;;3.78;2.90;;;30.30;99.90;;;;;;5010681;28;20351;-76
2021/06/18 12:09:01;;;;;;;4.95;3.47;;;30.20;99.90;;;;;;4994461;28;20176;-76
2021/06/18 12:11:28;;;;;;;7.75;3.08;;;30.10;99.90;;;;;;5008908;28;20182;-76
2021/06/18 12:13:54;;;;;;;4.97;3.15;;;30.10;99.90;;;;;;4977791;28;20262;-76
2021/06/18 12:16:21;;;;;;;4.18;3.00;;;30.10;99.90;;;;;;4994004;28;20696;-76
2021/06/18 12:18:47;;;;;;;3.67;3.00;;;30.00;99.90;;;;;;4996287;28;20256;-76
2021/06/18 12:21:12;;;;;;;4.40;2.70;;;30.10;99.90;;;;;;5007612;28;20709;-76
2021/06/18 12:23:39;;;;;;;4.35;2.90;;;30.10;99.90;;;;;;4977561;28;20542;-74
2021/06/18 12:26:05;;;;;;;4.78;2.80;;;30.00;99.90;;;;;;4993520;28;20193;-74
2021/06/18 12:28:30;;;;;;;5.57;2.88;;;30.00;99.90;;;;;;4992414;28;20567;-74
2021/06/18 12:30:56;;;;;;;3.53;2.55;;;30.00;99.90;;;;;;4994437;28;20183;-74
2021/06/18 12:33:22;;;;;;;4.07;2.53;;;30.10;99.90;;;;;;5006374;28;20188;-74
2021/06/18 12:35:48;;;;;;;3.05;2.75;;;30.20;99.90;;;;;;4992783;28;20196;-76
2021/06/18 12:38:14;;;;;;;3.50;2.38;;;30.20;99.90;;;;;;5003733;28;20218;-74
2021/06/18 12:40:44;;;;;;;4.25;2.95;;;30.30;99.90;;;;;;5001324;28;20229;-74
2021/06/18 12:43:11;;;;;;;3.85;2.55;;;30.40;99.90;;;;;;5007103;28;20180;-74
2021/06/18 12:45:53;;;;;;;5.22;2.72;;;30.50;99.90;;;;;;5001809;28;20223;-74
2021/06/18 12:48:26;;;;;;;4.65;2.90;;;30.60;99.90;;;;;;5001311;28;20179;-74
2021/06/18 12:50:57;;;;;;;6.70;3.60;;;30.80;99.90;;;;;;5003987;28;20682;-76
2021/06/18 12:53:40;;;;;;;6.07;3.30;;;31.00;99.90;;;;;;5004728;28;20180;-74
2021/06/18 12:56:24;;;;;;;4.30;3.30;;;31.10;99.90;;;;;;4994016;28;20255;-74